createdAt,value
2023-04-16T00:02:40.307Z,10.04
2023-04-16T00:05:43.417Z,10.03
2023-04-16T00:08:46.281Z,9.97
2023-04-16T00:11:49.366Z,9.95
2023-04-16T00:14:51.860Z,9.70
2023-04-16T00:17:54.909Z,9.58
2023-04-16T00:20:57.650Z,9.44
2023-04-16T00:24:00.630Z,9.55
2023-04-16T00:27:03.348Z,9.58
2023-04-16T00:30:07.464Z,9.60
2023-04-16T00:33:10.158Z,9.50
2023-04-16T00:36:13.068Z,9.47
2023-04-16T00:39:16.096Z,9.42
2023-04-16T00:42:19.429Z,9.45
2023-04-16T00:45:22.108Z,9.49
2023-04-16T00:48:27.978Z,9.55
2023-04-16T00:51:31.861Z,9.61
2023-04-16T00:54:34.924Z,9.41
2023-04-16T00:57:37.449Z,9.44
2023-04-16T01:00:40.436Z,9.30
2023-04-16T01:03:46.393Z,9.39
2023-04-16T01:06:49.431Z,9.54
2023-04-16T01:09:52.057Z,9.56
2023-04-16T01:12:55.034Z,9.51
2023-04-16T01:15:57.679Z,9.36
2023-04-16T01:19:00.769Z,9.36
2023-04-16T01:22:04.313Z,9.49
2023-04-16T01:25:07.410Z,9.60
2023-04-16T01:28:10.843Z,9.48
2023-04-16T01:31:13.889Z,9.54
2023-04-16T01:34:17.390Z,9.28
2023-04-16T01:37:20.933Z,9.18
2023-04-16T01:40:23.842Z,9.08
2023-04-16T01:43:26.854Z,8.86
2023-04-16T01:46:32.244Z,8.91
2023-04-16T01:49:36.513Z,8.96
2023-04-16T01:52:39.518Z,8.96
2023-04-16T01:55:42.464Z,8.92
2023-04-16T01:58:46.203Z,9.05
2023-04-16T02:01:49.574Z,9.03
2023-04-16T02:04:52.554Z,9.11
2023-04-16T02:07:55.297Z,9.20
2023-04-16T02:10:58.689Z,9.38
2023-04-16T02:14:01.842Z,9.03
2023-04-16T02:17:04.983Z,9.11
2023-04-16T02:20:10.298Z,9.12
2023-04-16T02:23:15.192Z,9.15
2023-04-16T02:26:17.985Z,9.14
2023-04-16T02:29:22.666Z,9.14
2023-04-16T02:32:26.735Z,8.99
2023-04-16T02:35:29.681Z,9.00
2023-04-16T02:38:32.590Z,9.15
2023-04-16T02:41:36.096Z,9.00
2023-04-16T02:44:39.190Z,8.98
2023-04-16T02:47:42.402Z,8.85
2023-04-16T02:50:45.365Z,8.75
2023-04-16T02:53:48.228Z,8.92
2023-04-16T02:56:50.858Z,8.92
2023-04-16T02:59:53.899Z,8.79
2023-04-16T03:02:57.296Z,8.53
2023-04-16T03:06:00.455Z,8.73
2023-04-16T03:09:03.315Z,8.63
2023-04-16T03:12:06.517Z,8.68
2023-04-16T03:15:09.673Z,8.60
2023-04-16T03:18:12.567Z,8.66
2023-04-16T03:21:15.291Z,8.64
2023-04-16T03:24:18.191Z,8.53
2023-04-16T03:27:22.863Z,8.63
2023-04-16T03:30:25.897Z,8.43
2023-04-16T03:33:28.731Z,8.54
2023-04-16T03:36:32.629Z,8.47
2023-04-16T03:39:35.715Z,8.52
2023-04-16T03:42:39.366Z,8.62
2023-04-16T03:45:46.093Z,8.82
2023-04-16T03:48:49.249Z,8.77
2023-04-16T03:51:52.125Z,8.82
2023-04-16T03:54:54.971Z,8.80
2023-04-16T03:57:58.701Z,8.76
2023-04-16T04:01:01.651Z,8.91
2023-04-16T04:04:05.874Z,8.85
2023-04-16T04:07:08.678Z,8.92
2023-04-16T04:10:12.084Z,8.96
2023-04-16T04:13:15.292Z,8.94
2023-04-16T04:16:18.618Z,8.93
2023-04-16T04:19:21.766Z,8.89
2023-04-16T04:22:25.017Z,8.86
2023-04-16T04:25:28.338Z,8.93
2023-04-16T04:28:32.187Z,9.01
2023-04-16T04:31:35.211Z,8.96
2023-04-16T04:34:38.331Z,9.04
2023-04-16T04:37:41.608Z,9.07
2023-04-16T04:40:45.391Z,9.27
2023-04-16T04:43:48.094Z,9.16
2023-04-16T04:46:52.203Z,9.22
2023-04-16T04:49:55.079Z,9.44
2023-04-16T04:52:58.143Z,9.49
2023-04-16T04:56:09.236Z,9.55
2023-04-16T04:59:16.005Z,9.50
2023-04-16T05:02:18.780Z,9.38
2023-04-16T05:05:21.826Z,9.48
2023-04-16T05:08:24.599Z,9.62
2023-04-16T05:11:27.872Z,9.51
2023-04-16T05:14:30.498Z,9.40
2023-04-16T05:17:33.420Z,9.54
2023-04-16T05:20:37.891Z,9.58
2023-04-16T05:23:40.917Z,9.59
2023-04-16T05:26:43.522Z,9.81
2023-04-16T05:29:46.486Z,9.74
2023-04-16T05:32:49.519Z,9.98
2023-04-16T05:35:52.447Z,9.95
2023-04-16T05:38:55.376Z,10.07
2023-04-16T05:41:58.284Z,10.16
2023-04-16T05:45:04.270Z,10.03
2023-04-16T05:48:10.766Z,10.34
2023-04-16T05:51:13.471Z,10.53
2023-04-16T05:54:16.491Z,10.38
2023-04-16T05:57:19.062Z,10.45
2023-04-16T06:00:22.233Z,10.50
2023-04-16T06:03:25.170Z,10.45
2023-04-16T06:06:28.168Z,10.66
2023-04-16T06:09:31.077Z,10.66
2023-04-16T06:12:34.186Z,10.60
2023-04-16T06:15:37.253Z,10.71
2023-04-16T06:18:40.737Z,10.88
2023-04-16T06:21:44.703Z,10.90
2023-04-16T06:24:47.287Z,11.27
2023-04-16T06:27:50.225Z,11.05
2023-04-16T06:30:52.993Z,11.41
2023-04-16T06:33:56.223Z,11.26
2023-04-16T06:36:58.773Z,11.35
2023-04-16T06:40:02.054Z,11.45
2023-04-16T06:43:04.839Z,11.36
2023-04-16T06:46:07.757Z,11.63
2023-04-16T06:49:10.927Z,12.06
2023-04-16T06:52:14.042Z,11.82
2023-04-16T06:55:16.749Z,12.25
2023-04-16T06:58:19.683Z,12.13
2023-04-16T07:01:22.393Z,12.42
2023-04-16T07:04:25.445Z,12.07
2023-04-16T07:07:28.181Z,12.11
2023-04-16T07:10:31.411Z,12.17
2023-04-16T07:13:34.146Z,12.20
2023-04-16T07:16:37.997Z,12.37
2023-04-16T07:19:41.048Z,12.53
2023-04-16T07:22:44.169Z,12.37
2023-04-16T07:25:46.834Z,12.49
2023-04-16T07:28:49.712Z,12.61
2023-04-16T07:31:52.817Z,12.89
2023-04-16T07:34:56.218Z,13.01
2023-04-16T07:37:58.975Z,13.12
2023-04-16T07:41:02.314Z,13.27
2023-04-16T07:44:05.478Z,13.61
2023-04-16T07:47:08.325Z,13.67
2023-04-16T07:50:11.967Z,13.79
2023-04-16T07:53:15.006Z,13.34
2023-04-16T07:56:17.570Z,13.43
2023-04-16T07:59:23.502Z,13.10
2023-04-16T08:02:27.598Z,13.20
2023-04-16T08:05:30.719Z,13.51
2023-04-16T08:08:33.332Z,13.13
2023-04-16T08:11:36.688Z,13.20
2023-04-16T08:14:41.317Z,13.14
2023-04-16T08:17:44.877Z,13.29
2023-04-16T08:20:47.636Z,13.57
2023-04-16T08:23:50.867Z,13.57
2023-04-16T08:26:53.469Z,13.57
2023-04-16T08:29:56.582Z,13.54
2023-04-16T08:32:59.526Z,13.59
2023-04-16T08:36:02.472Z,13.36
2023-04-16T08:39:05.229Z,13.35
2023-04-16T08:42:19.022Z,13.24
2023-04-16T08:45:21.747Z,13.42
2023-04-16T08:48:25.502Z,13.44
2023-04-16T08:51:30.320Z,13.66
2023-04-16T08:54:46.490Z,13.83
2023-04-16T08:58:01.352Z,14.35
2023-04-16T09:01:05.091Z,14.37
2023-04-16T09:04:09.381Z,14.78
2023-04-16T09:07:12.769Z,14.39
2023-04-16T09:10:16.441Z,14.51
2023-04-16T09:13:20.669Z,14.58
2023-04-16T09:16:23.866Z,14.52
2023-04-16T09:19:27.314Z,14.64
2023-04-16T09:22:29.915Z,14.72
2023-04-16T09:25:38.558Z,14.99
2023-04-16T09:28:43.796Z,14.78
2023-04-16T09:32:02.529Z,15.02
2023-04-16T09:35:05.689Z,14.92
2023-04-16T09:38:08.581Z,14.86
2023-04-16T09:41:11.180Z,14.86
2023-04-16T09:44:14.131Z,15.02
2023-04-16T09:47:17.046Z,14.97
2023-04-16T09:50:20.675Z,15.36
2023-04-16T09:53:30.869Z,15.42
2023-04-16T09:56:33.974Z,15.58
2023-04-16T09:59:36.573Z,15.47
2023-04-16T10:02:42.681Z,15.56
2023-04-16T10:05:46.079Z,15.71
2023-04-16T10:08:50.490Z,16.08
2023-04-16T10:11:53.582Z,15.85
2023-04-16T10:14:56.290Z,16.51
2023-04-16T10:18:00.430Z,16.53
2023-04-16T10:21:03.457Z,16.81
2023-04-16T10:24:08.304Z,17.12
2023-04-16T10:27:11.276Z,16.69
2023-04-16T10:30:16.765Z,16.84
2023-04-16T10:33:21.954Z,16.79
2023-04-16T10:36:26.737Z,17.29
2023-04-16T10:39:29.750Z,17.83
2023-04-16T10:42:33.668Z,17.64
2023-04-16T10:45:39.078Z,17.20
2023-04-16T10:48:49.695Z,17.22
2023-04-16T10:52:04.783Z,17.11
2023-04-16T10:55:14.752Z,16.81
2023-04-16T10:58:31.062Z,17.11
2023-04-16T11:01:36.648Z,16.89
2023-04-16T11:04:42.713Z,16.83
2023-04-16T11:07:49.690Z,16.52
2023-04-16T11:10:53.066Z,16.86
2023-04-16T11:13:57.181Z,16.63
2023-04-16T11:17:03.672Z,16.30
2023-04-16T11:20:20.079Z,15.96
2023-04-16T11:23:23.502Z,15.75
2023-04-16T11:26:30.912Z,15.70
2023-04-16T11:29:34.251Z,15.81
2023-04-16T11:32:38.934Z,15.96
2023-04-16T11:35:43.382Z,15.92
2023-04-16T11:38:47.404Z,16.04
2023-04-16T11:41:52.488Z,16.00
2023-04-16T11:44:57.029Z,16.41
2023-04-16T11:47:59.713Z,16.39
2023-04-16T11:51:02.663Z,17.44
2023-04-16T11:54:05.624Z,17.34
2023-04-16T11:57:08.662Z,17.55
2023-04-16T12:00:15.271Z,17.91
2023-04-16T12:03:18.600Z,17.37
2023-04-16T12:06:22.719Z,17.27
2023-04-16T12:09:27.436Z,17.20
2023-04-16T12:12:32.535Z,17.46
2023-04-16T12:15:46.844Z,17.40
2023-04-16T12:19:01.355Z,17.79
2023-04-16T12:22:04.285Z,17.79
2023-04-16T12:25:10.684Z,17.95
2023-04-16T12:28:13.966Z,18.03
2023-04-16T12:31:16.731Z,18.41
2023-04-16T12:34:21.038Z,18.25
2023-04-16T12:37:23.654Z,19.42
2023-04-16T12:40:26.953Z,19.16
2023-04-16T12:43:29.647Z,19.36
2023-04-16T12:46:32.921Z,19.47
2023-04-16T12:49:36.630Z,18.85
2023-04-16T12:52:40.121Z,18.90
2023-04-16T12:55:42.842Z,19.26
2023-04-16T12:58:45.983Z,19.47
2023-04-16T13:01:48.752Z,19.04
2023-04-16T13:04:52.768Z,18.94
2023-04-16T13:07:55.522Z,18.98
2023-04-16T13:10:58.592Z,18.89
2023-04-16T13:14:01.433Z,18.90
2023-04-16T13:17:04.743Z,18.79
2023-04-16T13:20:07.935Z,19.17
2023-04-16T13:23:11.402Z,18.78
2023-04-16T13:26:15.891Z,18.82
2023-04-16T13:29:20.046Z,19.02
2023-04-16T13:32:22.911Z,18.50
2023-04-16T13:35:27.372Z,18.94
2023-04-16T13:38:30.290Z,18.67
2023-04-16T13:41:33.545Z,18.16
2023-04-16T13:44:36.169Z,18.48
2023-04-16T13:47:44.032Z,18.62
2023-04-16T13:50:46.766Z,18.20
2023-04-16T13:53:50.458Z,18.30
2023-04-16T13:56:53.325Z,18.11
2023-04-16T13:59:57.780Z,18.38
2023-04-16T14:03:00.821Z,18.83
2023-04-16T14:06:04.582Z,18.86
2023-04-16T14:09:09.593Z,18.61
2023-04-16T14:12:13.170Z,18.36
2023-04-16T14:15:15.916Z,18.02
2023-04-16T14:18:21.260Z,17.63
2023-04-16T14:21:24.417Z,17.59
2023-04-16T14:24:27.363Z,16.96
2023-04-16T14:27:30.391Z,16.59
2023-04-16T14:30:33.290Z,16.73
2023-04-16T14:33:36.954Z,16.82
2023-04-16T14:36:40.883Z,16.64
2023-04-16T14:39:44.077Z,16.52
2023-04-16T14:42:47.438Z,16.57
2023-04-16T14:45:50.296Z,16.58
2023-04-16T14:48:53.493Z,16.34
2023-04-16T14:51:57.159Z,16.06
2023-04-16T14:55:00.495Z,15.99
2023-04-16T14:58:03.274Z,15.99
2023-04-16T15:01:06.369Z,15.95
2023-04-16T15:04:09.606Z,15.68
2023-04-16T15:07:12.966Z,15.62
2023-04-16T15:10:15.885Z,15.45
2023-04-16T15:13:19.300Z,15.04
2023-04-16T15:16:22.091Z,14.98
2023-04-16T15:19:25.899Z,14.82
2023-04-16T15:22:28.879Z,14.91
2023-04-16T15:25:33.193Z,15.07
2023-04-16T15:28:36.246Z,15.20
2023-04-16T15:31:39.534Z,15.13
2023-04-16T15:34:42.451Z,15.17
2023-04-16T15:37:46.249Z,15.18
2023-04-16T15:40:49.179Z,15.11
2023-04-16T15:43:52.266Z,15.11
2023-04-16T15:46:54.863Z,14.95
2023-04-16T15:49:58.820Z,14.98
2023-04-16T15:53:01.803Z,14.90
2023-04-16T15:56:04.933Z,14.89
2023-04-16T15:59:08.265Z,14.90
2023-04-16T16:02:11.920Z,14.91
2023-04-16T16:05:16.054Z,14.83
2023-04-16T16:08:18.819Z,14.95
2023-04-16T16:11:22.000Z,14.81
2023-04-16T16:14:24.893Z,14.83
2023-04-16T16:17:28.711Z,14.74
2023-04-16T16:20:32.001Z,14.74
2023-04-16T16:23:35.149Z,14.65
2023-04-16T16:26:38.068Z,14.61
2023-04-16T16:29:41.181Z,14.60
2023-04-16T16:32:44.671Z,14.61
2023-04-16T16:35:47.857Z,14.57
2023-04-16T16:38:50.759Z,14.50
2023-04-16T16:41:53.969Z,14.46
2023-04-16T16:44:57.562Z,14.47
2023-04-16T16:48:00.852Z,14.47
2023-04-16T16:51:03.980Z,14.39
2023-04-16T16:54:08.266Z,14.34
2023-04-16T16:57:12.570Z,14.33
2023-04-16T17:00:19.834Z,14.26
2023-04-16T17:03:22.876Z,14.24
2023-04-16T17:06:27.409Z,14.16
2023-04-16T17:09:30.203Z,14.08
2023-04-16T17:12:33.524Z,13.94
2023-04-16T17:15:36.372Z,13.97
2023-04-16T17:18:39.566Z,13.98
2023-04-16T17:21:42.540Z,13.95
2023-04-16T17:24:45.656Z,13.96
2023-04-16T17:27:48.669Z,13.80
2023-04-16T17:30:54.051Z,13.93
2023-04-16T17:33:56.716Z,13.82
2023-04-16T17:36:59.599Z,13.82
2023-04-16T17:40:07.407Z,13.79
2023-04-16T17:43:10.690Z,13.86
2023-04-16T17:46:13.709Z,13.89
2023-04-16T17:49:17.013Z,13.84
2023-04-16T17:52:21.479Z,13.89
2023-04-16T17:55:24.773Z,13.93
2023-04-16T17:58:30.540Z,13.94
2023-04-16T18:01:33.814Z,13.86
2023-04-16T18:04:37.131Z,13.84
2023-04-16T18:07:39.964Z,13.76
2023-04-16T18:10:43.271Z,13.76
2023-04-16T18:13:45.914Z,13.71
2023-04-16T18:16:49.779Z,13.69
2023-04-16T18:19:52.683Z,13.65
2023-04-16T18:22:56.135Z,13.68
2023-04-16T18:25:59.041Z,13.64
2023-04-16T18:29:03.130Z,13.53
2023-04-16T18:32:06.490Z,13.52
2023-04-16T18:35:11.052Z,13.46
2023-04-16T18:38:14.084Z,13.44
2023-04-16T18:41:20.946Z,13.46
2023-04-16T18:44:24.745Z,13.47
2023-04-16T18:47:27.992Z,13.48
2023-04-16T18:50:31.088Z,13.42
2023-04-16T18:53:34.352Z,13.44
2023-04-16T18:56:37.263Z,13.42
2023-04-16T18:59:40.656Z,13.39
2023-04-16T19:02:43.531Z,13.33
2023-04-16T19:05:46.688Z,13.37
2023-04-16T19:08:49.438Z,13.51
2023-04-16T19:11:52.744Z,13.59
2023-04-16T19:14:55.584Z,13.54
2023-04-16T19:17:58.780Z,13.65
2023-04-16T19:21:01.967Z,13.57
2023-04-16T19:24:06.995Z,13.54
2023-04-16T19:27:09.937Z,13.48
2023-04-16T19:30:13.406Z,13.50
2023-04-16T19:33:16.526Z,13.51
2023-04-16T19:36:19.911Z,13.51
2023-04-16T19:39:26.905Z,13.48
2023-04-16T19:42:31.039Z,13.48
2023-04-16T19:45:33.968Z,13.53
2023-04-16T19:48:37.254Z,13.53
2023-04-16T19:51:40.804Z,13.62
2023-04-16T19:54:44.716Z,13.75
2023-04-16T19:57:48.419Z,13.80
2023-04-16T20:00:51.644Z,13.82
2023-04-16T20:03:56.383Z,13.88
2023-04-16T20:06:59.327Z,13.91
2023-04-16T20:10:03.140Z,13.95
2023-04-16T20:13:10.088Z,13.93
2023-04-16T20:16:13.612Z,13.92
2023-04-16T20:19:18.219Z,13.94
2023-04-16T20:22:21.546Z,13.99
2023-04-16T20:25:26.311Z,13.97
2023-04-16T20:28:29.640Z,13.99
2023-04-16T20:31:33.215Z,14.00
2023-04-16T20:34:38.011Z,14.06
2023-04-16T20:37:43.019Z,14.10
2023-04-16T20:40:47.186Z,14.20
2023-04-16T20:43:52.946Z,14.18
2023-04-16T20:46:57.163Z,14.15
2023-04-16T20:50:01.903Z,14.11
2023-04-16T20:53:05.065Z,14.02
2023-04-16T20:56:09.222Z,14.08
2023-04-16T20:59:13.503Z,14.03
2023-04-16T21:02:16.518Z,14.01
2023-04-16T21:05:21.409Z,14.01
2023-04-16T21:08:24.859Z,13.96
2023-04-16T21:11:29.403Z,13.94
2023-04-16T21:14:32.028Z,13.90
2023-04-16T21:17:35.038Z,13.87
2023-04-16T21:20:38.879Z,13.87
2023-04-16T21:23:41.790Z,13.76
2023-04-16T21:26:44.483Z,13.76
2023-04-16T21:29:47.597Z,13.70
2023-04-16T21:32:50.735Z,13.68
2023-04-16T21:35:54.069Z,13.64
2023-04-16T21:38:56.791Z,13.62
2023-04-16T21:41:59.875Z,13.54
2023-04-16T21:45:02.478Z,13.62
2023-04-16T21:48:06.338Z,13.56
2023-04-16T21:51:10.141Z,13.52
2023-04-16T21:54:13.120Z,13.51
2023-04-16T21:57:15.730Z,13.49
2023-04-16T22:00:18.945Z,13.47
2023-04-16T22:03:28.213Z,13.42
2023-04-16T22:06:31.249Z,13.51
2023-04-16T22:09:34.232Z,13.48
2023-04-16T22:12:40.033Z,13.44
2023-04-16T22:15:42.704Z,13.45
2023-04-16T22:18:46.481Z,13.38
2023-04-16T22:21:49.220Z,13.38
2023-04-16T22:24:52.431Z,13.36
2023-04-16T22:27:55.041Z,13.33
2023-04-16T22:30:58.348Z,13.32
2023-04-16T22:34:03.230Z,13.30
2023-04-16T22:37:08.212Z,13.17
2023-04-16T22:40:11.607Z,13.19
2023-04-16T22:43:14.818Z,13.15
2023-04-16T22:46:19.875Z,13.12
2023-04-16T22:49:23.037Z,13.04
2023-04-16T22:52:27.372Z,12.94
2023-04-16T22:55:30.386Z,12.92
2023-04-16T22:58:33.315Z,12.77
2023-04-16T23:01:36.679Z,12.80
2023-04-16T23:04:39.406Z,12.72
2023-04-16T23:07:42.282Z,12.73
2023-04-16T23:10:45.039Z,12.79
2023-04-16T23:13:48.313Z,12.76
2023-04-16T23:16:51.029Z,12.72
2023-04-16T23:19:53.962Z,12.68
2023-04-16T23:22:56.636Z,12.65
2023-04-16T23:26:01.009Z,12.54
2023-04-16T23:29:03.687Z,12.59
2023-04-16T23:32:06.661Z,12.55
2023-04-16T23:35:09.740Z,12.52
2023-04-16T23:38:12.825Z,12.50
2023-04-16T23:41:15.773Z,12.48
2023-04-16T23:44:19.194Z,12.46
2023-04-16T23:47:21.885Z,12.48
2023-04-16T23:50:24.961Z,12.47
2023-04-16T23:53:27.609Z,12.40
2023-04-16T23:56:30.472Z,12.44
2023-04-16T23:59:33.155Z,12.39
